Terminal Aerodrome Forecast
Issued by NWS

Home | Current Version | Previous Version | Text Only | Print | Product List | Glossary On
Versions: 1 2 3 4 5 6 7 8 9 10 11 12 13 14 15 16 17
000
FTUS43 KGRB 211727
TAFATW
TAF
KATW 211727Z 2118/2218 27012G18KT P6SM SCT100
      TEMPO 2119/2123 -SHRA BKN100
     FM212300 30012KT P6SM VCSH SCT090
     FM220100 04007KT P6SM SKC
     FM220800 36003KT P6SM SKC
     FM221500 02005KT P6SM SKC=

USA.gov is the U.S. government's official web portal to all federal, state and local government web resources and services.